首页
METAR-TAF:

METAR-TAF

机场 :

新山一國際機場

胡志明, 越南

纬度: 10-49N, 经度: 106-40E, 海拔: 19米

当前天气观测

该预报发布于17分钟前的17:00 UTC
风速4节,风向,在北转西北东转东北之间变化
温度 25°C
湿度 94%
气压 1012 hPa
能見度: 8000
散云层高于1500英尺
多云层高于5000英尺
小雨

METAR: VVTS 011700Z 01004KT 330V060 8000 -RA SCT015 BKN050 25/24 Q1012 NOSIG

时间: 00:17 (17:17 UTC)

预报

该预报发布于4小时和4分钟前的13:13 UTC
预报有效从01日的 13点(UTC)到 02日的 18点(UTC)
风速3节,风向多变
能见度10公里或以上
散云层高于1500英尺
散云层高于4000英尺
短暂存在
从 01日的 13点(UTC)到 01日的 16点(UTC)
风速15节,风向东北,有时为30节阵风
能見度: 1500
多云层高于1500英尺
散云层高于1700英尺, 积雨云.
雷暴, 大雨
成为
从 02日的 01点(UTC)到 02日的 02点(UTC)
风速10节,风向西转西南
短暂存在
从 02日的 07点(UTC)到 02日的 12点(UTC)
风速15节,风向西转西南,有时为28节阵风
能見度: 3000
多云层高于1300英尺
散云层高于1500英尺, 积雨云.
雷暴, 雨

TAF: VVTS 011313Z 0113/0218 VRB03KT 9999 SCT015 SCT040 TEMPO 0113/0116 05015G30KT 1500 +TSRA BKN015 SCT017CB BECMG 0201/0202 24010KT TEMPO 0207/0212 24015G28KT 3000 TSRA BKN013 SCT015CB

超过4000个机场的气象观测和天气预报(METAR&TAF报告)。

可查询的气象台以黄色和红色小点在地图上表示。

将鼠标移到小点上方,可查看气象台名称。

然后点击查看天气观测和预报。

如需切换地图:点击带黑十字的绿色按钮放大地图;点击带横线的绿色按钮缩小地图;或者点击绿色箭头查看邻近地区的地图。


METAR-TAF: